หน้าหลัก
METAR-TAF:

METAR-TAF

ท่าอากาศยาน :

พอร์ตมอร์สบี, ปาปัวนิวกินี

ละติจูด: 09-26S, ลองจิจูด: 147-13E, ความสูง: 38 ม.

การสังเกตสภาพอากาศปัจจุบัน

รายงานได้ทำขึ้นเมื่อ 44 นาทีที่แล้ว ณ เวลา 07:00 UTC
ลม 10 นอตจากใต้/ตะวันออกเฉียงใต้โดยมีลมกระโชกได้ถึง20 นอต
อุณหภูมิ 29°C
ความชื้น 70%
ความกดอากาศ 1009 hPa
ทัศนวิสัย: 5000 ม.
มีเมฆกระจายเป็นบางส่วนที่ความสูง 5000 ฟุต

METAR: AYPY 300700Z 15010G20KT 5000 FUHZ SCT050 29/23 Q1009

เวลา: 17:44 (07:44 UTC)

การพยากรณ์

รายงานได้ทำขึ้นเมื่อ 5 ชั่วโมงและ 14 นาทีที่แล้ว ณ เวลา 02:30 UTC
การพยากรณ์มีผลตั้งแต่วันที่ 30 ณ เวลา 06 UTC จนถึงวันที่ 31 ณ เวลา 06 UTC
ลม 15 นอตจากใต้/ตะวันออกเฉียงใต้
ทัศนวิสัย 10 กม. หรือมากกว่า
มีเมฆกระจายเป็นบางส่วนที่ความสูง 2000 ฟุต

TAF: AYPY 300230Z 3006/3106 16015KT 9999 SCT020

สังเกตการณ์สภาพอากาศและพยากรณ์อากาศของสนามบินมากกว่า 4000 แห่ง (รายงาน METAR และ TAF).

สถานีที่ดูได้จะแสดงไว้ด้วยจุดสีเหลืองและสีแดงบนแผนที่.

เลื่อนเมาส์ไปเหนือจุดเพื่อดูชื่อสถานี.

แล้วคลิกเพื่อดูสังเกตการณ์และการพยากรณ์สภาพอากาศ.

ในการเปลี่ยนแผนที่: คลิกที่ปุ่มสีเขียวที่มีกากบาทสีดำเพื่อซูมเข้า; ที่ปุ่มสีเขียวที่มีขีดเพื่อซูมออก; หรือที่ลูกศรสีเขียวเพื่อไปยังแผนที่ที่อยู่ติดกัน.


METAR-TAF: